sensor_id;sensor_type;location;lat;lon;timestamp;temperature;humidity
24162;DHT22;12318;51.262;7.066;2022-11-14T00:00:11;9.20;91.20
24162;DHT22;12318;51.262;7.066;2022-11-14T00:02:37;9.40;91.00
24162;DHT22;12318;51.262;7.066;2022-11-14T00:05:04;9.70;90.90
24162;DHT22;12318;51.262;7.066;2022-11-14T00:07:31;9.80;90.20
24162;DHT22;12318;51.262;7.066;2022-11-14T00:09:58;9.80;88.90
24162;DHT22;12318;51.262;7.066;2022-11-14T00:12:24;9.70;89.20
24162;DHT22;12318;51.262;7.066;2022-11-14T00:14:50;9.50;89.80
24162;DHT22;12318;51.262;7.066;2022-11-14T00:17:16;9.40;91.00
24162;DHT22;12318;51.262;7.066;2022-11-14T00:19:42;8.80;92.60
24162;DHT22;12318;51.262;7.066;2022-11-14T00:22:08;9.10;94.10
24162;DHT22;12318;51.262;7.066;2022-11-14T00:24:34;9.40;93.80
24162;DHT22;12318;51.262;7.066;2022-11-14T00:26:59;9.50;94.00
24162;DHT22;12318;51.262;7.066;2022-11-14T01:09:02;9.90;94.30
24162;DHT22;12318;51.262;7.066;2022-11-14T01:11:28;10.00;94.00
24162;DHT22;12318;51.262;7.066;2022-11-14T01:13:54;9.90;94.10
24162;DHT22;12318;51.262;7.066;2022-11-14T01:16:19;9.80;94.30
24162;DHT22;12318;51.262;7.066;2022-11-14T01:18:45;9.80;94.40
24162;DHT22;12318;51.262;7.066;2022-11-14T01:21:12;9.80;94.40
24162;DHT22;12318;51.262;7.066;2022-11-14T01:23:38;9.80;94.30
24162;DHT22;12318;51.262;7.066;2022-11-14T01:50:09;9.50;95.70
24162;DHT22;12318;51.262;7.066;2022-11-14T01:52:37;9.50;95.60
24162;DHT22;12318;51.262;7.066;2022-11-14T01:55:08;9.50;95.40
24162;DHT22;12318;51.262;7.066;2022-11-14T01:57:41;9.50;95.40
24162;DHT22;12318;51.262;7.066;2022-11-14T02:00:10;9.50;95.50
24162;DHT22;12318;51.262;7.066;2022-11-14T02:02:37;9.30;95.60
24162;DHT22;12318;51.262;7.066;2022-11-14T02:05:07;9.30;95.90
24162;DHT22;12318;51.262;7.066;2022-11-14T02:07:36;9.30;96.00
24162;DHT22;12318;51.262;7.066;2022-11-14T02:10:18;9.20;96.30
24162;DHT22;12318;51.262;7.066;2022-11-14T02:12:45;9.20;96.50
24162;DHT22;12318;51.262;7.066;2022-11-14T02:36:28;9.00;98.90
24162;DHT22;12318;51.262;7.066;2022-11-14T02:38:54;9.10;98.90
24162;DHT22;12318;51.262;7.066;2022-11-14T02:41:19;9.10;98.90
24162;DHT22;12318;51.262;7.066;2022-11-14T02:43:45;9.10;99.00
24162;DHT22;12318;51.262;7.066;2022-11-14T02:46:11;9.10;99.10
24162;DHT22;12318;51.262;7.066;2022-11-14T02:48:37;9.10;99.30
24162;DHT22;12318;51.262;7.066;2022-11-14T02:51:03;9.00;99.50
24162;DHT22;12318;51.262;7.066;2022-11-14T02:53:28;9.00;99.70
24162;DHT22;12318;51.262;7.066;2022-11-14T02:55:54;9.00;99.90
24162;DHT22;12318;51.262;7.066;2022-11-14T02:58:20;9.00;99.80
24162;DHT22;12318;51.262;7.066;2022-11-14T03:00:49;9.00;99.90
24162;DHT22;12318;51.262;7.066;2022-11-14T03:03:14;9.10;99.80
24162;DHT22;12318;51.262;7.066;2022-11-14T03:05:40;9.10;99.80
24162;DHT22;12318;51.262;7.066;2022-11-14T03:08:06;9.00;99.90
24162;DHT22;12318;51.262;7.066;2022-11-14T03:10:31;9.10;99.90
24162;DHT22;12318;51.262;7.066;2022-11-14T03:12:57;9.00;99.90
24162;DHT22;12318;51.262;7.066;2022-11-14T03:15:23;9.00;99.90
24162;DHT22;12318;51.262;7.066;2022-11-14T03:43:19;8.50;99.90
24162;DHT22;12318;51.262;7.066;2022-11-14T03:45:45;8.50;99.90
24162;DHT22;12318;51.262;7.066;2022-11-14T03:48:11;8.50;99.90
24162;DHT22;12318;51.262;7.066;2022-11-14T03:50:38;8.40;99.90
24162;DHT22;12318;51.262;7.066;2022-11-14T03:53:04;8.40;99.90
24162;DHT22;12318;51.262;7.066;2022-11-14T03:55:30;8.40;99.90
24162;DHT22;12318;51.262;7.066;2022-11-14T03:57:55;8.30;99.90
24162;DHT22;12318;51.262;7.066;2022-11-14T04:00:21;8.30;99.90
24162;DHT22;12318;51.262;7.066;2022-11-14T04:02:47;8.20;99.90
24162;DHT22;12318;51.262;7.066;2022-11-14T04:05:13;8.20;99.90
24162;DHT22;12318;51.262;7.066;2022-11-14T04:07:38;8.10;99.90
24162;DHT22;12318;51.262;7.066;2022-11-14T04:10:06;8.10;99.90
24162;DHT22;12318;51.262;7.066;2022-11-14T04:12:32;8.10;99.90
24162;DHT22;12318;51.262;7.066;2022-11-14T04:14:57;8.10;99.90
24162;DHT22;12318;51.262;7.066;2022-11-14T04:17:23;8.10;99.90
24162;DHT22;12318;51.262;7.066;2022-11-14T04:19:49;8.10;99.90
24162;DHT22;12318;51.262;7.066;2022-11-14T04:22:15;8.30;99.90
24162;DHT22;12318;51.262;7.066;2022-11-14T04:24:40;8.20;99.90
24162;DHT22;12318;51.262;7.066;2022-11-14T04:27:06;8.00;99.90
24162;DHT22;12318;51.262;7.066;2022-11-14T04:29:32;8.00;99.90
24162;DHT22;12318;51.262;7.066;2022-11-14T04:31:58;8.10;99.90
24162;DHT22;12318;51.262;7.066;2022-11-14T04:34:23;7.90;99.90
24162;DHT22;12318;51.262;7.066;2022-11-14T04:36:49;8.00;99.90
24162;DHT22;12318;51.262;7.066;2022-11-14T04:39:18;7.80;99.90
24162;DHT22;12318;51.262;7.066;2022-11-14T04:41:44;7.70;99.90
24162;DHT22;12318;51.262;7.066;2022-11-14T04:44:09;7.40;99.90
24162;DHT22;12318;51.262;7.066;2022-11-14T04:46:35;7.50;99.90
24162;DHT22;12318;51.262;7.066;2022-11-14T04:49:01;7.60;99.90
24162;DHT22;12318;51.262;7.066;2022-11-14T04:51:27;7.70;99.90
24162;DHT22;12318;51.262;7.066;2022-11-14T04:53:52;7.60;99.90
24162;DHT22;12318;51.262;7.066;2022-11-14T04:56:19;7.50;99.90
24162;DHT22;12318;51.262;7.066;2022-11-14T04:58:48;7.50;99.90
24162;DHT22;12318;51.262;7.066;2022-11-14T05:01:14;7.50;99.90
24162;DHT22;12318;51.262;7.066;2022-11-14T05:03:40;7.40;99.90
24162;DHT22;12318;51.262;7.066;2022-11-14T05:06:06;7.40;99.90
24162;DHT22;12318;51.262;7.066;2022-11-14T05:08:32;7.40;99.90
24162;DHT22;12318;51.262;7.066;2022-11-14T05:10:58;7.30;99.90
24162;DHT22;12318;51.262;7.066;2022-11-14T05:13:24;7.30;99.90
24162;DHT22;12318;51.262;7.066;2022-11-14T05:15:49;7.30;99.90
24162;DHT22;12318;51.262;7.066;2022-11-14T05:18:15;7.40;99.90
24162;DHT22;12318;51.262;7.066;2022-11-14T05:20:41;7.40;99.90
24162;DHT22;12318;51.262;7.066;2022-11-14T05:23:17;7.50;99.90
24162;DHT22;12318;51.262;7.066;2022-11-14T05:25:44;7.50;99.90
24162;DHT22;12318;51.262;7.066;2022-11-14T05:28:09;7.60;99.90
24162;DHT22;12318;51.262;7.066;2022-11-14T05:30:35;7.50;99.90
24162;DHT22;12318;51.262;7.066;2022-11-14T05:33:01;7.60;99.90
24162;DHT22;12318;51.262;7.066;2022-11-14T05:35:26;7.60;99.90
24162;DHT22;12318;51.262;7.066;2022-11-14T05:37:52;7.60;99.90
24162;DHT22;12318;51.262;7.066;2022-11-14T05:40:18;7.50;99.90
24162;DHT22;12318;51.262;7.066;2022-11-14T05:42:44;7.50;99.90
24162;DHT22;12318;51.262;7.066;2022-11-14T05:45:09;7.50;99.90
24162;DHT22;12318;51.262;7.066;2022-11-14T05:47:35;7.70;99.90
24162;DHT22;12318;51.262;7.066;2022-11-14T05:50:02;7.60;99.90
24162;DHT22;12318;51.262;7.066;2022-11-14T05:52:28;7.50;99.90
24162;DHT22;12318;51.262;7.066;2022-11-14T05:54:54;7.40;99.90
24162;DHT22;12318;51.262;7.066;2022-11-14T05:57:20;7.50;99.90
24162;DHT22;12318;51.262;7.066;2022-11-14T05:59:46;7.50;99.90
24162;DHT22;12318;51.262;7.066;2022-11-14T06:02:12;7.50;99.90
24162;DHT22;12318;51.262;7.066;2022-11-14T06:04:38;7.40;99.90
24162;DHT22;12318;51.262;7.066;2022-11-14T06:07:04;7.40;99.90
24162;DHT22;12318;51.262;7.066;2022-11-14T06:09:32;7.30;99.90
24162;DHT22;12318;51.262;7.066;2022-11-14T06:12:14;7.20;99.90
24162;DHT22;12318;51.262;7.066;2022-11-14T06:14:40;7.20;99.90
24162;DHT22;12318;51.262;7.066;2022-11-14T06:17:05;7.30;99.90
24162;DHT22;12318;51.262;7.066;2022-11-14T06:19:31;7.30;99.90
24162;DHT22;12318;51.262;7.066;2022-11-14T06:22:14;7.20;99.90
24162;DHT22;12318;51.262;7.066;2022-11-14T06:24:40;7.20;99.90
24162;DHT22;12318;51.262;7.066;2022-11-14T06:27:05;7.20;99.90
24162;DHT22;12318;51.262;7.066;2022-11-14T06:29:31;7.20;99.90
24162;DHT22;12318;51.262;7.066;2022-11-14T06:31:57;7.30;99.90
24162;DHT22;12318;51.262;7.066;2022-11-14T06:34:23;7.20;99.90
24162;DHT22;12318;51.262;7.066;2022-11-14T06:36:48;7.20;99.90
24162;DHT22;12318;51.262;7.066;2022-11-14T06:39:14;7.20;99.90
24162;DHT22;12318;51.262;7.066;2022-11-14T06:41:40;7.20;99.90
24162;DHT22;12318;51.262;7.066;2022-11-14T06:44:07;7.20;99.90
24162;DHT22;12318;51.262;7.066;2022-11-14T06:46:33;7.10;99.90
24162;DHT22;12318;51.262;7.066;2022-11-14T06:48:58;7.10;99.90
24162;DHT22;12318;51.262;7.066;2022-11-14T06:51:24;7.10;99.90
24162;DHT22;12318;51.262;7.066;2022-11-14T06:53:50;7.00;99.90
24162;DHT22;12318;51.262;7.066;2022-11-14T06:56:17;7.00;99.90
24162;DHT22;12318;51.262;7.066;2022-11-14T06:58:46;7.00;99.90
24162;DHT22;12318;51.262;7.066;2022-11-14T07:01:14;7.10;99.90
24162;DHT22;12318;51.262;7.066;2022-11-14T07:03:41;7.00;99.90
24162;DHT22;12318;51.262;7.066;2022-11-14T07:06:09;7.00;99.90
24162;DHT22;12318;51.262;7.066;2022-11-14T07:08:36;7.00;99.90
24162;DHT22;12318;51.262;7.066;2022-11-14T07:11:07;7.00;99.90
24162;DHT22;12318;51.262;7.066;2022-11-14T07:13:34;7.00;99.90
24162;DHT22;12318;51.262;7.066;2022-11-14T07:16:01;6.90;99.90
24162;DHT22;12318;51.262;7.066;2022-11-14T07:18:29;7.00;99.90
24162;DHT22;12318;51.262;7.066;2022-11-14T07:21:05;6.90;99.90
24162;DHT22;12318;51.262;7.066;2022-11-14T07:23:31;6.90;99.90
24162;DHT22;12318;51.262;7.066;2022-11-14T07:26:01;6.90;99.90
24162;DHT22;12318;51.262;7.066;2022-11-14T07:28:29;6.90;99.90
24162;DHT22;12318;51.262;7.066;2022-11-14T07:30:57;6.90;99.90
24162;DHT22;12318;51.262;7.066;2022-11-14T07:33:23;6.90;99.90
24162;DHT22;12318;51.262;7.066;2022-11-14T07:35:50;6.80;99.90
24162;DHT22;12318;51.262;7.066;2022-11-14T07:38:16;6.80;99.90
24162;DHT22;12318;51.262;7.066;2022-11-14T07:40:42;6.80;99.90
24162;DHT22;12318;51.262;7.066;2022-11-14T07:43:07;6.90;99.90
24162;DHT22;12318;51.262;7.066;2022-11-14T07:45:36;6.90;99.90
24162;DHT22;12318;51.262;7.066;2022-11-14T07:48:02;6.90;99.90
24162;DHT22;12318;51.262;7.066;2022-11-14T07:50:28;6.70;99.90
24162;DHT22;12318;51.262;7.066;2022-11-14T07:52:55;6.70;99.90
24162;DHT22;12318;51.262;7.066;2022-11-14T07:55:22;6.60;99.90
24162;DHT22;12318;51.262;7.066;2022-11-14T07:57:51;6.60;99.90
24162;DHT22;12318;51.262;7.066;2022-11-14T08:00:18;6.70;99.90
24162;DHT22;12318;51.262;7.066;2022-11-14T08:02:45;6.90;99.90
24162;DHT22;12318;51.262;7.066;2022-11-14T08:05:11;6.80;99.90
24162;DHT22;12318;51.262;7.066;2022-11-14T08:07:37;6.90;99.90
24162;DHT22;12318;51.262;7.066;2022-11-14T08:10:03;6.80;99.90
24162;DHT22;12318;51.262;7.066;2022-11-14T08:12:29;6.80;99.90
24162;DHT22;12318;51.262;7.066;2022-11-14T08:14:57;6.80;99.90
24162;DHT22;12318;51.262;7.066;2022-11-14T08:17:23;6.80;99.90
24162;DHT22;12318;51.262;7.066;2022-11-14T08:19:49;6.80;99.90
24162;DHT22;12318;51.262;7.066;2022-11-14T08:22:15;6.80;99.90
24162;DHT22;12318;51.262;7.066;2022-11-14T08:24:41;6.80;99.90
24162;DHT22;12318;51.262;7.066;2022-11-14T08:27:06;6.90;99.90
24162;DHT22;12318;51.262;7.066;2022-11-14T08:29:35;6.80;99.90
24162;DHT22;12318;51.262;7.066;2022-11-14T08:32:01;6.70;99.90
24162;DHT22;12318;51.262;7.066;2022-11-14T08:34:27;6.70;99.90
24162;DHT22;12318;51.262;7.066;2022-11-14T08:36:53;6.70;99.90
24162;DHT22;12318;51.262;7.066;2022-11-14T08:39:28;6.70;99.90
24162;DHT22;12318;51.262;7.066;2022-11-14T08:42:04;6.80;99.90
24162;DHT22;12318;51.262;7.066;2022-11-14T08:44:36;6.90;99.90
24162;DHT22;12318;51.262;7.066;2022-11-14T08:47:08;6.90;99.90
24162;DHT22;12318;51.262;7.066;2022-11-14T08:49:33;6.80;99.90
24162;DHT22;12318;51.262;7.066;2022-11-14T08:52:04;6.90;99.90
24162;DHT22;12318;51.262;7.066;2022-11-14T08:54:30;6.90;99.90
24162;DHT22;12318;51.262;7.066;2022-11-14T08:56:56;7.00;99.90
24162;DHT22;12318;51.262;7.066;2022-11-14T08:59:21;7.00;99.90
24162;DHT22;12318;51.262;7.066;2022-11-14T09:01:47;6.90;99.90
24162;DHT22;12318;51.262;7.066;2022-11-14T09:04:16;6.90;99.90
24162;DHT22;12318;51.262;7.066;2022-11-14T09:06:44;7.10;99.90
24162;DHT22;12318;51.262;7.066;2022-11-14T09:09:13;7.10;99.90
24162;DHT22;12318;51.262;7.066;2022-11-14T09:11:41;7.10;99.90
24162;DHT22;12318;51.262;7.066;2022-11-14T09:14:07;7.00;99.90
24162;DHT22;12318;51.262;7.066;2022-11-14T09:16:33;7.10;99.90
24162;DHT22;12318;51.262;7.066;2022-11-14T09:18:59;7.10;99.90
24162;DHT22;12318;51.262;7.066;2022-11-14T09:21:26;7.10;99.90
24162;DHT22;12318;51.262;7.066;2022-11-14T09:23:52;7.10;99.90
24162;DHT22;12318;51.262;7.066;2022-11-14T09:26:18;7.10;99.90
24162;DHT22;12318;51.262;7.066;2022-11-14T09:28:46;7.00;99.90
24162;DHT22;12318;51.262;7.066;2022-11-14T09:31:17;7.00;99.90
24162;DHT22;12318;51.262;7.066;2022-11-14T09:37:12;7.10;99.90
24162;DHT22;12318;51.262;7.066;2022-11-14T09:39:38;7.10;99.90
24162;DHT22;12318;51.262;7.066;2022-11-14T09:42:48;7.20;99.90
24162;DHT22;12318;51.262;7.066;2022-11-14T09:45:21;7.20;99.90
24162;DHT22;12318;51.262;7.066;2022-11-14T09:47:51;7.30;99.90
24162;DHT22;12318;51.262;7.066;2022-11-14T09:50:23;7.20;99.90
24162;DHT22;12318;51.262;7.066;2022-11-14T09:53:05;7.20;99.90
24162;DHT22;12318;51.262;7.066;2022-11-14T09:55:34;7.10;99.90
24162;DHT22;12318;51.262;7.066;2022-11-14T09:58:04;7.20;99.90
24162;DHT22;12318;51.262;7.066;2022-11-14T10:01:07;7.20;99.90
24162;DHT22;12318;51.262;7.066;2022-11-14T10:03:49;7.40;99.90
24162;DHT22;12318;51.262;7.066;2022-11-14T10:06:31;7.40;99.90
24162;DHT22;12318;51.262;7.066;2022-11-14T10:17:17;7.40;99.90
24162;DHT22;12318;51.262;7.066;2022-11-14T10:22:47;7.40;99.90
24162;DHT22;12318;51.262;7.066;2022-11-14T10:25:23;7.40;99.90
24162;DHT22;12318;51.262;7.066;2022-11-14T10:39:23;7.60;99.90
24162;DHT22;12318;51.262;7.066;2022-11-14T10:41:55;7.60;99.90
24162;DHT22;12318;51.262;7.066;2022-11-14T10:44:30;7.70;99.90
24162;DHT22;12318;51.262;7.066;2022-11-14T10:47:03;7.80;99.90
24162;DHT22;12318;51.262;7.066;2022-11-14T10:49:35;7.90;99.90
24162;DHT22;12318;51.262;7.066;2022-11-14T10:52:05;8.10;99.90
24162;DHT22;12318;51.262;7.066;2022-11-14T10:54:47;8.00;99.90
24162;DHT22;12318;51.262;7.066;2022-11-14T10:57:20;7.90;99.90
24162;DHT22;12318;51.262;7.066;2022-11-14T10:59:51;7.80;99.90
24162;DHT22;12318;51.262;7.066;2022-11-14T11:02:24;7.80;99.90
24162;DHT22;12318;51.262;7.066;2022-11-14T11:04:50;7.90;99.90
24162;DHT22;12318;51.262;7.066;2022-11-14T11:07:24;7.80;99.90
24162;DHT22;12318;51.262;7.066;2022-11-14T11:10:22;7.90;99.90
24162;DHT22;12318;51.262;7.066;2022-11-14T11:13:12;7.90;99.90
24162;DHT22;12318;51.262;7.066;2022-11-14T11:15:41;8.00;99.90
24162;DHT22;12318;51.262;7.066;2022-11-14T11:18:29;8.00;99.90
24162;DHT22;12318;51.262;7.066;2022-11-14T11:21:14;8.20;99.90
24162;DHT22;12318;51.262;7.066;2022-11-14T11:23:57;8.30;99.90
24162;DHT22;12318;51.262;7.066;2022-11-14T11:26:39;8.20;99.90
24162;DHT22;12318;51.262;7.066;2022-11-14T11:31:56;8.40;99.90
24162;DHT22;12318;51.262;7.066;2022-11-14T11:34:31;8.60;99.90
24162;DHT22;12318;51.262;7.066;2022-11-14T11:37:02;8.50;99.90
24162;DHT22;12318;51.262;7.066;2022-11-14T11:39:34;8.50;99.90
24162;DHT22;12318;51.262;7.066;2022-11-14T11:44:59;8.20;99.90
24162;DHT22;12318;51.262;7.066;2022-11-14T11:47:31;8.20;99.90
24162;DHT22;12318;51.262;7.066;2022-11-14T11:50:14;8.30;99.90
24162;DHT22;12318;51.262;7.066;2022-11-14T11:53:06;8.40;99.90
24162;DHT22;12318;51.262;7.066;2022-11-14T11:55:45;8.40;99.90
24162;DHT22;12318;51.262;7.066;2022-11-14T11:58:25;8.30;99.90
24162;DHT22;12318;51.262;7.066;2022-11-14T12:01:09;8.40;99.90
24162;DHT22;12318;51.262;7.066;2022-11-14T12:03:38;8.50;99.90
24162;DHT22;12318;51.262;7.066;2022-11-14T12:08:47;8.50;99.90
24162;DHT22;12318;51.262;7.066;2022-11-14T12:11:19;8.40;99.90
24162;DHT22;12318;51.262;7.066;2022-11-14T12:17:08;8.40;99.90
24162;DHT22;12318;51.262;7.066;2022-11-14T12:30:40;8.80;99.90
24162;DHT22;12318;51.262;7.066;2022-11-14T12:35:56;8.90;99.90
24162;DHT22;12318;51.262;7.066;2022-11-14T12:38:23;9.00;99.90
24162;DHT22;12318;51.262;7.066;2022-11-14T12:40:54;9.00;99.90
24162;DHT22;12318;51.262;7.066;2022-11-14T12:43:36;9.10;99.90
24162;DHT22;12318;51.262;7.066;2022-11-14T12:46:06;9.10;99.90
24162;DHT22;12318;51.262;7.066;2022-11-14T12:48:44;9.20;99.90
24162;DHT22;12318;51.262;7.066;2022-11-14T12:54:00;9.20;99.90
24162;DHT22;12318;51.262;7.066;2022-11-14T12:59:05;9.10;99.90
24162;DHT22;12318;51.262;7.066;2022-11-14T13:02:31;9.00;99.90
24162;DHT22;12318;51.262;7.066;2022-11-14T13:12:29;9.00;99.90
24162;DHT22;12318;51.262;7.066;2022-11-14T13:16:02;9.00;99.90
24162;DHT22;12318;51.262;7.066;2022-11-14T13:19:14;9.00;99.90
24162;DHT22;12318;51.262;7.066;2022-11-14T13:27:32;8.90;99.90
24162;DHT22;12318;51.262;7.066;2022-11-14T13:29:59;9.00;99.90
24162;DHT22;12318;51.262;7.066;2022-11-14T13:38:30;8.90;99.90
24162;DHT22;12318;51.262;7.066;2022-11-14T13:46:43;8.90;99.90
24162;DHT22;12318;51.262;7.066;2022-11-14T13:52:13;8.90;99.90
24162;DHT22;12318;51.262;7.066;2022-11-14T13:54:48;9.00;99.90
24162;DHT22;12318;51.262;7.066;2022-11-14T14:00:17;9.10;99.90
24162;DHT22;12318;51.262;7.066;2022-11-14T14:16:35;8.80;99.90
24162;DHT22;12318;51.262;7.066;2022-11-14T14:19:52;8.80;99.90
24162;DHT22;12318;51.262;7.066;2022-11-14T14:31:11;8.70;99.90
24162;DHT22;12318;51.262;7.066;2022-11-14T14:33:43;8.80;99.90
24162;DHT22;12318;51.262;7.066;2022-11-14T14:36:29;8.70;99.90
24162;DHT22;12318;51.262;7.066;2022-11-14T14:39:21;8.70;99.90
24162;DHT22;12318;51.262;7.066;2022-11-14T14:41:51;8.70;99.90
24162;DHT22;12318;51.262;7.066;2022-11-14T14:44:30;8.70;99.90
24162;DHT22;12318;51.262;7.066;2022-11-14T14:46:57;8.80;99.90
24162;DHT22;12318;51.262;7.066;2022-11-14T14:49:27;8.70;99.90
24162;DHT22;12318;51.262;7.066;2022-11-14T14:51:54;8.70;99.90
24162;DHT22;12318;51.262;7.066;2022-11-14T14:54:27;8.60;99.90
24162;DHT22;12318;51.262;7.066;2022-11-14T14:56:58;8.60;99.90
24162;DHT22;12318;51.262;7.066;2022-11-14T14:59:29;8.60;99.90
24162;DHT22;12318;51.262;7.066;2022-11-14T15:01:56;8.60;99.90
24162;DHT22;12318;51.262;7.066;2022-11-14T15:04:25;8.50;99.90
24162;DHT22;12318;51.262;7.066;2022-11-14T15:06:53;8.60;99.90
24162;DHT22;12318;51.262;7.066;2022-11-14T15:09:24;8.60;99.90
24162;DHT22;12318;51.262;7.066;2022-11-14T15:11:56;8.60;99.90
24162;DHT22;12318;51.262;7.066;2022-11-14T15:14:27;8.50;99.90
24162;DHT22;12318;51.262;7.066;2022-11-14T15:16:54;8.40;99.90
24162;DHT22;12318;51.262;7.066;2022-11-14T15:19:24;8.50;99.90
24162;DHT22;12318;51.262;7.066;2022-11-14T15:24:30;8.50;99.90
24162;DHT22;12318;51.262;7.066;2022-11-14T15:26:56;8.50;99.90
24162;DHT22;12318;51.262;7.066;2022-11-14T15:29:26;8.50;99.90
24162;DHT22;12318;51.262;7.066;2022-11-14T15:32:00;8.40;99.90
24162;DHT22;12318;51.262;7.066;2022-11-14T15:37:24;8.40;99.90
24162;DHT22;12318;51.262;7.066;2022-11-14T15:39:50;8.40;99.90
24162;DHT22;12318;51.262;7.066;2022-11-14T15:44:51;8.40;99.90
24162;DHT22;12318;51.262;7.066;2022-11-14T15:47:23;8.40;99.90
24162;DHT22;12318;51.262;7.066;2022-11-14T15:50:01;8.30;99.90
24162;DHT22;12318;51.262;7.066;2022-11-14T15:52:37;8.20;99.90
24162;DHT22;12318;51.262;7.066;2022-11-14T15:55:11;8.20;99.90
24162;DHT22;12318;51.262;7.066;2022-11-14T15:57:37;8.20;99.90
24162;DHT22;12318;51.262;7.066;2022-11-14T16:00:04;8.20;99.90
24162;DHT22;12318;51.262;7.066;2022-11-14T16:02:32;8.30;99.90
24162;DHT22;12318;51.262;7.066;2022-11-14T16:05:01;8.30;99.90
24162;DHT22;12318;51.262;7.066;2022-11-14T16:07:28;8.10;99.90
24162;DHT22;12318;51.262;7.066;2022-11-14T16:09:54;8.20;99.90
24162;DHT22;12318;51.262;7.066;2022-11-14T16:12:20;8.20;99.90
24162;DHT22;12318;51.262;7.066;2022-11-14T16:14:46;8.10;99.90
24162;DHT22;12318;51.262;7.066;2022-11-14T16:17:14;8.20;99.90
24162;DHT22;12318;51.262;7.066;2022-11-14T16:19:40;8.20;99.90
24162;DHT22;12318;51.262;7.066;2022-11-14T16:22:10;8.10;99.90
24162;DHT22;12318;51.262;7.066;2022-11-14T16:24:36;8.20;99.90
24162;DHT22;12318;51.262;7.066;2022-11-14T16:27:02;8.20;99.90
24162;DHT22;12318;51.262;7.066;2022-11-14T16:29:28;8.10;99.90
24162;DHT22;12318;51.262;7.066;2022-11-14T16:31:53;8.10;99.90
24162;DHT22;12318;51.262;7.066;2022-11-14T16:34:22;8.10;99.90
24162;DHT22;12318;51.262;7.066;2022-11-14T16:36:48;8.10;99.90
24162;DHT22;12318;51.262;7.066;2022-11-14T16:39:16;8.10;99.90
24162;DHT22;12318;51.262;7.066;2022-11-14T16:41:41;8.20;99.90
24162;DHT22;12318;51.262;7.066;2022-11-14T16:44:13;8.20;99.90
24162;DHT22;12318;51.262;7.066;2022-11-14T16:46:40;8.20;99.90
24162;DHT22;12318;51.262;7.066;2022-11-14T16:49:05;8.20;99.90
24162;DHT22;12318;51.262;7.066;2022-11-14T16:51:31;8.20;99.90
24162;DHT22;12318;51.262;7.066;2022-11-14T16:53:59;8.20;99.90
24162;DHT22;12318;51.262;7.066;2022-11-14T16:56:25;8.20;99.90
24162;DHT22;12318;51.262;7.066;2022-11-14T16:58:55;8.20;99.90
24162;DHT22;12318;51.262;7.066;2022-11-14T17:01:21;8.10;99.90
24162;DHT22;12318;51.262;7.066;2022-11-14T17:03:46;8.20;99.90
24162;DHT22;12318;51.262;7.066;2022-11-14T17:06:12;8.20;99.90
24162;DHT22;12318;51.262;7.066;2022-11-14T17:08:38;8.10;99.90
24162;DHT22;12318;51.262;7.066;2022-11-14T17:11:08;8.20;99.90
24162;DHT22;12318;51.262;7.066;2022-11-14T17:13:35;8.20;99.90
24162;DHT22;12318;51.262;7.066;2022-11-14T17:16:02;8.20;99.90
24162;DHT22;12318;51.262;7.066;2022-11-14T17:18:28;8.30;99.90
24162;DHT22;12318;51.262;7.066;2022-11-14T17:20:53;8.20;99.90
24162;DHT22;12318;51.262;7.066;2022-11-14T17:23:19;8.20;99.90
24162;DHT22;12318;51.262;7.066;2022-11-14T17:25:45;8.20;99.90
24162;DHT22;12318;51.262;7.066;2022-11-14T17:28:11;8.20;99.90
24162;DHT22;12318;51.262;7.066;2022-11-14T17:30:41;8.30;99.90
24162;DHT22;12318;51.262;7.066;2022-11-14T17:33:06;8.20;99.90
24162;DHT22;12318;51.262;7.066;2022-11-14T17:35:35;8.30;99.90
24162;DHT22;12318;51.262;7.066;2022-11-14T17:38:01;8.20;99.90
24162;DHT22;12318;51.262;7.066;2022-11-14T17:40:27;8.20;99.90
24162;DHT22;12318;51.262;7.066;2022-11-14T17:42:52;8.30;99.90
24162;DHT22;12318;51.262;7.066;2022-11-14T17:45:18;8.30;99.90
24162;DHT22;12318;51.262;7.066;2022-11-14T17:47:44;8.40;99.90
24162;DHT22;12318;51.262;7.066;2022-11-14T17:50:10;8.30;99.90
24162;DHT22;12318;51.262;7.066;2022-11-14T17:52:36;8.30;99.90
24162;DHT22;12318;51.262;7.066;2022-11-14T17:55:02;8.30;99.90
24162;DHT22;12318;51.262;7.066;2022-11-14T17:57:28;8.20;99.90
24162;DHT22;12318;51.262;7.066;2022-11-14T17:59:54;8.20;99.90
24162;DHT22;12318;51.262;7.066;2022-11-14T18:02:19;8.30;99.90
24162;DHT22;12318;51.262;7.066;2022-11-14T18:04:45;8.30;99.90
24162;DHT22;12318;51.262;7.066;2022-11-14T18:07:13;8.30;99.90
24162;DHT22;12318;51.262;7.066;2022-11-14T18:09:40;8.30;99.90
24162;DHT22;12318;51.262;7.066;2022-11-14T18:12:06;8.30;99.90
24162;DHT22;12318;51.262;7.066;2022-11-14T18:14:32;8.20;99.90
24162;DHT22;12318;51.262;7.066;2022-11-14T18:16:58;8.20;99.90
24162;DHT22;12318;51.262;7.066;2022-11-14T18:19:24;8.20;99.90
24162;DHT22;12318;51.262;7.066;2022-11-14T18:21:49;8.20;99.90
24162;DHT22;12318;51.262;7.066;2022-11-14T18:24:15;8.20;99.90
24162;DHT22;12318;51.262;7.066;2022-11-14T18:26:41;8.30;99.90
24162;DHT22;12318;51.262;7.066;2022-11-14T18:29:07;8.30;99.90
24162;DHT22;12318;51.262;7.066;2022-11-14T18:31:32;8.20;99.90
24162;DHT22;12318;51.262;7.066;2022-11-14T18:33:58;8.10;99.90
24162;DHT22;12318;51.262;7.066;2022-11-14T18:36:25;8.20;99.90
24162;DHT22;12318;51.262;7.066;2022-11-14T18:38:51;8.10;99.90
24162;DHT22;12318;51.262;7.066;2022-11-14T18:41:18;8.20;99.90
24162;DHT22;12318;51.262;7.066;2022-11-14T18:43:46;8.10;99.90
24162;DHT22;12318;51.262;7.066;2022-11-14T18:46:16;8.10;99.90
24162;DHT22;12318;51.262;7.066;2022-11-14T18:48:45;8.10;99.90
24162;DHT22;12318;51.262;7.066;2022-11-14T18:51:16;8.10;99.90
24162;DHT22;12318;51.262;7.066;2022-11-14T18:53:42;8.20;99.90
24162;DHT22;12318;51.262;7.066;2022-11-14T18:56:11;8.20;99.90
24162;DHT22;12318;51.262;7.066;2022-11-14T18:58:38;8.30;99.90
24162;DHT22;12318;51.262;7.066;2022-11-14T19:01:14;8.20;99.90
24162;DHT22;12318;51.262;7.066;2022-11-14T19:03:40;8.20;99.90
24162;DHT22;12318;51.262;7.066;2022-11-14T19:06:07;8.10;99.90
24162;DHT22;12318;51.262;7.066;2022-11-14T19:08:34;8.10;99.90
24162;DHT22;12318;51.262;7.066;2022-11-14T19:11:04;8.00;99.90
24162;DHT22;12318;51.262;7.066;2022-11-14T19:13:31;8.00;99.90
24162;DHT22;12318;51.262;7.066;2022-11-14T19:16:03;7.90;99.90
24162;DHT22;12318;51.262;7.066;2022-11-14T19:18:30;7.90;99.90
24162;DHT22;12318;51.262;7.066;2022-11-14T19:21:01;7.80;99.90
24162;DHT22;12318;51.262;7.066;2022-11-14T19:23:28;7.80;99.90
24162;DHT22;12318;51.262;7.066;2022-11-14T19:26:00;7.70;99.90
24162;DHT22;12318;51.262;7.066;2022-11-14T19:28:29;7.70;99.90
24162;DHT22;12318;51.262;7.066;2022-11-14T19:31:02;7.70;99.90
24162;DHT22;12318;51.262;7.066;2022-11-14T19:33:27;7.60;99.90
24162;DHT22;12318;51.262;7.066;2022-11-14T19:35:53;7.60;99.90
24162;DHT22;12318;51.262;7.066;2022-11-14T19:38:19;7.60;99.90
24162;DHT22;12318;51.262;7.066;2022-11-14T19:40:45;7.60;99.90
24162;DHT22;12318;51.262;7.066;2022-11-14T19:43:16;7.60;99.90
24162;DHT22;12318;51.262;7.066;2022-11-14T19:45:42;7.60;99.90